sensor_id;sensor_type;location;lat;lon;timestamp;pressure;altitude;pressure_sealevel;temperature;humidity
6425;BME280;12193;42.642;23.384;2023-02-04T00:01:40;94225.78;;;1.04;100.00
6425;BME280;12193;42.642;23.384;2023-02-04T00:04:11;94216.56;;;1.11;100.00
6425;BME280;12193;42.642;23.384;2023-02-04T00:06:41;94208.38;;;1.08;100.00
6425;BME280;12193;42.642;23.384;2023-02-04T00:09:10;94208.97;;;1.02;100.00
6425;BME280;12193;42.642;23.384;2023-02-04T00:11:44;94209.75;;;0.95;100.00
6425;BME280;12193;42.642;23.384;2023-02-04T00:14:13;94210.19;;;0.90;100.00
6425;BME280;12193;42.642;23.384;2023-02-04T00:16:43;94195.44;;;0.84;100.00
6425;BME280;12193;42.642;23.384;2023-02-04T00:19:12;94196.88;;;0.87;100.00
6425;BME280;12193;42.642;23.384;2023-02-04T00:21:42;94191.97;;;0.93;100.00
6425;BME280;12193;42.642;23.384;2023-02-04T00:24:11;94192.59;;;0.87;100.00
6425;BME280;12193;42.642;23.384;2023-02-04T00:26:43;94187.41;;;0.79;100.00
6425;BME280;12193;42.642;23.384;2023-02-04T00:29:13;94196.53;;;0.82;100.00
6425;BME280;12193;42.642;23.384;2023-02-04T00:31:42;94193.53;;;0.86;100.00
6425;BME280;12193;42.642;23.384;2023-02-04T00:34:11;94181.00;;;0.75;100.00
6425;BME280;12193;42.642;23.384;2023-02-04T00:36:40;94192.63;;;0.70;100.00
6425;BME280;12193;42.642;23.384;2023-02-04T00:39:09;94193.00;;;0.75;100.00
6425;BME280;12193;42.642;23.384;2023-02-04T00:41:39;94192.06;;;0.58;100.00
6425;BME280;12193;42.642;23.384;2023-02-04T00:44:11;94187.44;;;0.62;100.00
6425;BME280;12193;42.642;23.384;2023-02-04T00:46:42;94186.19;;;0.66;100.00
6425;BME280;12193;42.642;23.384;2023-02-04T00:49:14;94188.38;;;0.78;100.00
6425;BME280;12193;42.642;23.384;2023-02-04T00:51:43;94179.06;;;0.69;100.00
6425;BME280;12193;42.642;23.384;2023-02-04T00:54:12;94184.00;;;0.71;100.00
6425;BME280;12193;42.642;23.384;2023-02-04T00:56:43;94180.09;;;0.59;100.00
6425;BME280;12193;42.642;23.384;2023-02-04T00:59:15;94181.84;;;0.58;100.00
6425;BME280;12193;42.642;23.384;2023-02-04T01:01:44;94181.44;;;0.71;100.00
6425;BME280;12193;42.642;23.384;2023-02-04T01:04:14;94177.09;;;0.63;100.00
6425;BME280;12193;42.642;23.384;2023-02-04T04:08:37;93906.81;;;1.45;100.00
6425;BME280;12193;42.642;23.384;2023-02-04T04:11:08;93902.00;;;1.26;100.00
6425;BME280;12193;42.642;23.384;2023-02-04T04:13:37;93899.13;;;1.29;100.00
6425;BME280;12193;42.642;23.384;2023-02-04T04:16:07;93900.56;;;1.15;100.00
6425;BME280;12193;42.642;23.384;2023-02-04T04:18:36;93893.84;;;1.06;100.00
6425;BME280;12193;42.642;23.384;2023-02-04T04:21:06;93892.22;;;0.90;100.00
6425;BME280;12193;42.642;23.384;2023-02-04T04:23:38;93899.25;;;0.88;100.00
6425;BME280;12193;42.642;23.384;2023-02-04T04:26:07;93893.81;;;0.83;100.00
6425;BME280;12193;42.642;23.384;2023-02-04T04:28:36;93896.03;;;0.70;100.00
6425;BME280;12193;42.642;23.384;2023-02-04T04:31:06;93897.59;;;0.63;100.00
6425;BME280;12193;42.642;23.384;2023-02-04T04:33:35;93908.19;;;0.76;100.00
6425;BME280;12193;42.642;23.384;2023-02-04T04:36:05;93918.09;;;0.87;100.00
6425;BME280;12193;42.642;23.384;2023-02-04T04:38:38;93910.09;;;0.82;100.00
6425;BME280;12193;42.642;23.384;2023-02-04T04:41:07;93920.53;;;0.88;100.00
6425;BME280;12193;42.642;23.384;2023-02-04T04:43:36;93927.56;;;0.86;100.00
6425;BME280;12193;42.642;23.384;2023-02-04T04:46:05;93937.94;;;0.93;100.00
6425;BME280;12193;42.642;23.384;2023-02-04T04:48:35;93941.00;;;1.04;100.00
6425;BME280;12193;42.642;23.384;2023-02-04T04:51:04;93932.97;;;0.83;100.00
6425;BME280;12193;42.642;23.384;2023-02-04T04:53:37;93937.63;;;1.03;100.00
6425;BME280;12193;42.642;23.384;2023-02-04T04:56:06;93947.41;;;1.08;100.00
6425;BME280;12193;42.642;23.384;2023-02-04T04:58:35;93933.47;;;1.02;100.00
6425;BME280;12193;42.642;23.384;2023-02-04T05:01:04;93936.53;;;1.06;100.00
6425;BME280;12193;42.642;23.384;2023-02-04T05:03:34;93945.34;;;1.11;100.00
6425;BME280;12193;42.642;23.384;2023-02-04T05:06:03;93944.22;;;1.14;100.00
6425;BME280;12193;42.642;23.384;2023-02-04T05:08:36;93931.44;;;1.06;100.00
6425;BME280;12193;42.642;23.384;2023-02-04T05:11:06;93936.22;;;1.17;100.00
6425;BME280;12193;42.642;23.384;2023-02-04T05:13:35;93931.91;;;1.17;100.00
6425;BME280;12193;42.642;23.384;2023-02-04T05:16:05;93933.97;;;0.90;100.00
6425;BME280;12193;42.642;23.384;2023-02-04T05:18:37;93936.53;;;0.90;100.00
6425;BME280;12193;42.642;23.384;2023-02-04T05:21:07;93952.50;;;1.00;100.00
6425;BME280;12193;42.642;23.384;2023-02-04T05:23:39;93954.59;;;1.04;100.00
6425;BME280;12193;42.642;23.384;2023-02-04T05:26:08;93950.25;;;0.97;100.00
6425;BME280;12193;42.642;23.384;2023-02-04T05:28:38;93952.31;;;0.86;100.00
6425;BME280;12193;42.642;23.384;2023-02-04T05:31:07;93955.69;;;0.94;100.00
6425;BME280;12193;42.642;23.384;2023-02-04T05:33:36;93971.88;;;1.10;100.00
6425;BME280;12193;42.642;23.384;2023-02-04T05:36:06;93967.25;;;1.22;100.00
6425;BME280;12193;42.642;23.384;2023-02-04T05:38:35;93983.91;;;1.26;100.00
6425;BME280;12193;42.642;23.384;2023-02-04T05:41:08;93956.41;;;1.28;100.00
6425;BME280;12193;42.642;23.384;2023-02-04T05:43:37;93975.75;;;1.30;100.00
6425;BME280;12193;42.642;23.384;2023-02-04T05:46:08;93963.75;;;1.39;100.00
6425;BME280;12193;42.642;23.384;2023-02-04T05:48:37;93973.06;;;1.72;100.00
6425;BME280;12193;42.642;23.384;2023-02-04T05:51:07;93967.03;;;2.27;100.00
6425;BME280;12193;42.642;23.384;2023-02-04T05:53:36;93964.63;;;2.72;100.00
6425;BME280;12193;42.642;23.384;2023-02-04T05:56:08;93966.75;;;2.99;100.00
6425;BME280;12193;42.642;23.384;2023-02-04T05:58:37;93958.03;;;3.07;100.00
6425;BME280;12193;42.642;23.384;2023-02-04T06:01:07;93944.72;;;3.12;100.00
6425;BME280;12193;42.642;23.384;2023-02-04T06:03:36;93940.44;;;3.05;100.00
6425;BME280;12193;42.642;23.384;2023-02-04T06:06:06;93948.41;;;3.09;100.00
6425;BME280;12193;42.642;23.384;2023-02-04T06:08:35;93948.25;;;3.11;100.00
6425;BME280;12193;42.642;23.384;2023-02-04T06:11:05;93953.19;;;3.12;100.00
6425;BME280;12193;42.642;23.384;2023-02-04T06:13:37;93960.69;;;3.22;100.00
6425;BME280;12193;42.642;23.384;2023-02-04T06:16:06;93951.25;;;3.37;100.00
6425;BME280;12193;42.642;23.384;2023-02-04T06:18:36;93942.53;;;3.46;100.00
6425;BME280;12193;42.642;23.384;2023-02-04T06:21:05;93948.41;;;3.54;100.00
6425;BME280;12193;42.642;23.384;2023-02-04T06:23:34;93949.44;;;3.68;100.00
6425;BME280;12193;42.642;23.384;2023-02-04T06:26:04;93934.72;;;3.62;100.00
6425;BME280;12193;42.642;23.384;2023-02-04T06:28:36;93951.16;;;3.75;98.83
6425;BME280;12193;42.642;23.384;2023-02-04T06:31:05;93954.00;;;3.80;98.12
6425;BME280;12193;42.642;23.384;2023-02-04T06:33:35;93960.41;;;3.84;98.16
6425;BME280;12193;42.642;23.384;2023-02-04T06:36:04;93952.13;;;3.74;98.44
6425;BME280;12193;42.642;23.384;2023-02-04T06:38:34;93954.06;;;3.72;98.46
6425;BME280;12193;42.642;23.384;2023-02-04T06:41:04;93954.28;;;3.85;98.57
6425;BME280;12193;42.642;23.384;2023-02-04T06:43:36;93955.69;;;3.88;97.15
6425;BME280;12193;42.642;23.384;2023-02-04T06:46:06;93948.44;;;3.91;95.90
6425;BME280;12193;42.642;23.384;2023-02-04T06:48:35;93950.41;;;4.04;95.40
6425;BME280;12193;42.642;23.384;2023-02-04T06:51:04;93969.50;;;4.23;94.53
6425;BME280;12193;42.642;23.384;2023-02-04T06:53:34;93956.25;;;4.12;94.68
6425;BME280;12193;42.642;23.384;2023-02-04T06:56:03;93949.19;;;4.14;93.88
6425;BME280;12193;42.642;23.384;2023-02-04T06:58:33;93954.56;;;4.05;94.26
6425;BME280;12193;42.642;23.384;2023-02-04T07:01:04;93949.97;;;4.00;93.27
6425;BME280;12193;42.642;23.384;2023-02-04T07:03:34;93942.25;;;4.00;92.75
6425;BME280;12193;42.642;23.384;2023-02-04T07:06:03;93936.94;;;4.16;92.29
6425;BME280;12193;42.642;23.384;2023-02-04T07:08:33;93939.34;;;4.32;90.93
6425;BME280;12193;42.642;23.384;2023-02-04T07:11:02;93938.59;;;5.31;88.13
6425;BME280;12193;42.642;23.384;2023-02-04T07:13:32;93942.59;;;6.51;80.71
6425;BME280;12193;42.642;23.384;2023-02-04T07:16:05;93931.44;;;5.89;82.02
6425;BME280;12193;42.642;23.384;2023-02-04T07:18:34;93940.56;;;5.50;84.27
6425;BME280;12193;42.642;23.384;2023-02-04T07:21:04;93944.06;;;6.66;79.62
6425;BME280;12193;42.642;23.384;2023-02-04T07:23:33;93930.78;;;7.22;75.91
6425;BME280;12193;42.642;23.384;2023-02-04T07:26:02;93931.03;;;6.81;77.38
6425;BME280;12193;42.642;23.384;2023-02-04T07:28:31;93928.50;;;6.53;78.83
6425;BME280;12193;42.642;23.384;2023-02-04T07:31:04;93928.09;;;6.50;79.81
6425;BME280;12193;42.642;23.384;2023-02-04T07:33:34;93932.97;;;7.19;76.96
6425;BME280;12193;42.642;23.384;2023-02-04T07:36:04;93930.25;;;7.33;75.59
6425;BME280;12193;42.642;23.384;2023-02-04T07:38:33;93925.34;;;7.97;73.69
6425;BME280;12193;42.642;23.384;2023-02-04T07:41:02;93931.28;;;9.25;67.46
6425;BME280;12193;42.642;23.384;2023-02-04T07:43:31;93922.59;;;10.12;62.62
6425;BME280;12193;42.642;23.384;2023-02-04T07:46:01;93916.78;;;8.48;65.22
6425;BME280;12193;42.642;23.384;2023-02-04T07:48:33;93925.28;;;7.45;69.60
6425;BME280;12193;42.642;23.384;2023-02-04T07:51:02;93934.84;;;6.91;72.57
6425;BME280;12193;42.642;23.384;2023-02-04T07:53:32;93924.00;;;6.68;73.90
6425;BME280;12193;42.642;23.384;2023-02-04T07:56:01;93920.84;;;7.19;72.25
6425;BME280;12193;42.642;23.384;2023-02-04T07:58:30;93919.03;;;7.14;71.88
6425;BME280;12193;42.642;23.384;2023-02-04T08:00:59;93913.97;;;7.59;70.92
6425;BME280;12193;42.642;23.384;2023-02-04T08:03:29;93912.19;;;7.59;70.45
6425;BME280;12193;42.642;23.384;2023-02-04T08:06:01;93914.66;;;7.08;71.93
6425;BME280;12193;42.642;23.384;2023-02-04T08:08:30;93919.03;;;6.67;73.89
6425;BME280;12193;42.642;23.384;2023-02-04T08:10:59;93932.16;;;6.04;75.68
6425;BME280;12193;42.642;23.384;2023-02-04T08:13:29;93914.78;;;5.50;79.25
6425;BME280;12193;42.642;23.384;2023-02-04T08:15:58;93931.91;;;5.57;79.44
6425;BME280;12193;42.642;23.384;2023-02-04T08:18:27;93916.75;;;5.48;79.99
6425;BME280;12193;42.642;23.384;2023-02-04T08:20:56;93926.75;;;5.57;80.35
6425;BME280;12193;42.642;23.384;2023-02-04T08:23:29;93919.03;;;5.78;79.94
6425;BME280;12193;42.642;23.384;2023-02-04T08:25:58;93924.84;;;5.66;79.78
6425;BME280;12193;42.642;23.384;2023-02-04T08:28:28;93917.38;;;5.71;80.20
6425;BME280;12193;42.642;23.384;2023-02-04T08:30:57;93918.53;;;5.68;80.31
6425;BME280;12193;42.642;23.384;2023-02-04T08:33:26;93923.25;;;5.65;80.93
6425;BME280;12193;42.642;23.384;2023-02-04T08:35:56;93914.06;;;5.56;82.24
6425;BME280;12193;42.642;23.384;2023-02-04T08:38:25;93918.84;;;5.59;81.57
6425;BME280;12193;42.642;23.384;2023-02-04T08:40:57;93913.09;;;5.78;80.51
6425;BME280;12193;42.642;23.384;2023-02-04T08:43:27;93918.78;;;5.52;81.08
6425;BME280;12193;42.642;23.384;2023-02-04T08:45:56;93912.72;;;5.60;81.89
6425;BME280;12193;42.642;23.384;2023-02-04T08:48:25;93910.41;;;5.50;81.83
6425;BME280;12193;42.642;23.384;2023-02-04T08:50:55;93912.72;;;5.60;81.93
6425;BME280;12193;42.642;23.384;2023-02-04T08:53:24;93909.38;;;5.45;82.56
6425;BME280;12193;42.642;23.384;2023-02-04T08:55:56;93911.28;;;5.36;83.42
6425;BME280;12193;42.642;23.384;2023-02-04T08:58:25;93916.56;;;5.08;84.85
6425;BME280;12193;42.642;23.384;2023-02-04T09:00:55;93921.88;;;5.06;85.59
6425;BME280;12193;42.642;23.384;2023-02-04T09:03:24;93912.19;;;5.08;85.46
6425;BME280;12193;42.642;23.384;2023-02-04T09:05:53;93923.06;;;5.24;85.15
6425;BME280;12193;42.642;23.384;2023-02-04T09:08:23;93921.03;;;5.41;84.38
6425;BME280;12193;42.642;23.384;2023-02-04T09:10:52;93926.91;;;5.49;83.96
6425;BME280;12193;42.642;23.384;2023-02-04T09:13:24;93919.06;;;5.64;83.09
6425;BME280;12193;42.642;23.384;2023-02-04T09:15:53;93920.00;;;5.56;82.76
6425;BME280;12193;42.642;23.384;2023-02-04T09:18:23;93918.34;;;5.49;82.08
6425;BME280;12193;42.642;23.384;2023-02-04T09:20:52;93908.34;;;5.60;81.37
6425;BME280;12193;42.642;23.384;2023-02-04T09:23:21;93894.72;;;5.66;81.26
6425;BME280;12193;42.642;23.384;2023-02-04T09:25:51;93896.69;;;5.64;80.68
6425;BME280;12193;42.642;23.384;2023-02-04T09:28:20;93889.81;;;5.50;80.15
6425;BME280;12193;42.642;23.384;2023-02-04T09:30:52;93893.72;;;5.40;80.10
6425;BME280;12193;42.642;23.384;2023-02-04T09:33:21;93905.66;;;5.47;80.27
6425;BME280;12193;42.642;23.384;2023-02-04T09:35:51;93896.75;;;5.50;80.22
6425;BME280;12193;42.642;23.384;2023-02-04T09:38:21;93890.34;;;5.67;79.84
6425;BME280;12193;42.642;23.384;2023-02-04T09:40:55;93896.13;;;5.69;80.71
6425;BME280;12193;42.642;23.384;2023-02-04T09:43:27;93902.25;;;5.89;80.06
6425;BME280;12193;42.642;23.384;2023-02-04T09:46:01;93890.94;;;5.41;84.50
6425;BME280;12193;42.642;23.384;2023-02-04T09:48:31;93895.59;;;5.31;87.55
6425;BME280;12193;42.642;23.384;2023-02-04T09:51:04;93883.94;;;5.14;89.45
6425;BME280;12193;42.642;23.384;2023-02-04T09:53:35;93884.13;;;5.13;91.48
6425;BME280;12193;42.642;23.384;2023-02-04T09:56:07;93891.13;;;5.19;90.48
6425;BME280;12193;42.642;23.384;2023-02-04T09:58:38;93887.50;;;5.34;90.20
6425;BME280;12193;42.642;23.384;2023-02-04T10:01:13;93875.94;;;5.30;90.94
6425;BME280;12193;42.642;23.384;2023-02-04T10:03:44;93877.44;;;5.18;93.89
6425;BME280;12193;42.642;23.384;2023-02-04T10:06:19;93868.16;;;5.24;94.06
6425;BME280;12193;42.642;23.384;2023-02-04T10:08:49;93870.69;;;5.17;93.42
6425;BME280;12193;42.642;23.384;2023-02-04T10:11:21;93868.47;;;5.14;93.21
6425;BME280;12193;42.642;23.384;2023-02-04T10:13:53;93862.69;;;5.33;92.27
6425;BME280;12193;42.642;23.384;2023-02-04T10:16:29;93863.81;;;5.45;90.78
6425;BME280;12193;42.642;23.384;2023-02-04T10:19:02;93851.09;;;5.44;90.23
6425;BME280;12193;42.642;23.384;2023-02-04T10:21:34;93839.09;;;5.30;89.85
6425;BME280;12193;42.642;23.384;2023-02-04T10:24:09;93852.19;;;5.28;89.37
6425;BME280;12193;42.642;23.384;2023-02-04T10:26:41;93843.38;;;5.23;89.70
6425;BME280;12193;42.642;23.384;2023-02-04T10:29:15;93841.19;;;5.20;89.70
6425;BME280;12193;42.642;23.384;2023-02-04T10:31:48;93843.75;;;5.20;89.91
6425;BME280;12193;42.642;23.384;2023-02-04T10:34:19;93842.66;;;5.29;90.06
6425;BME280;12193;42.642;23.384;2023-02-04T10:36:51;93835.66;;;5.23;89.02
6425;BME280;12193;42.642;23.384;2023-02-04T10:39:24;93838.00;;;5.39;88.83
6425;BME280;12193;42.642;23.384;2023-02-04T10:41:55;93853.47;;;5.18;89.56
6425;BME280;12193;42.642;23.384;2023-02-04T10:44:28;93850.28;;;5.16;92.67
6425;BME280;12193;42.642;23.384;2023-02-04T10:47:02;93828.19;;;5.07;93.85
6425;BME280;12193;42.642;23.384;2023-02-04T10:49:31;93834.63;;;5.17;95.19
6425;BME280;12193;42.642;23.384;2023-02-04T10:52:14;93832.25;;;4.95;98.08
6425;BME280;12193;42.642;23.384;2023-02-04T10:54:44;93823.75;;;4.80;100.00
6425;BME280;12193;42.642;23.384;2023-02-04T10:57:17;93829.00;;;4.87;100.00
6425;BME280;12193;42.642;23.384;2023-02-04T10:59:49;93822.28;;;4.71;100.00
6425;BME280;12193;42.642;23.384;2023-02-04T11:02:43;93819.06;;;5.05;100.00
6425;BME280;12193;42.642;23.384;2023-02-04T11:05:14;93820.50;;;5.13;99.21
6425;BME280;12193;42.642;23.384;2023-02-04T11:07:46;93820.66;;;5.06;98.83
6425;BME280;12193;42.642;23.384;2023-02-04T11:10:17;93815.94;;;4.88;99.93
6425;BME280;12193;42.642;23.384;2023-02-04T11:12:59;93818.56;;;5.15;99.40
6425;BME280;12193;42.642;23.384;2023-02-04T11:15:44;93810.25;;;5.41;96.63
6425;BME280;12193;42.642;23.384;2023-02-04T11:18:28;93805.69;;;5.43;94.38
6425;BME280;12193;42.642;23.384;2023-02-04T11:21:00;93808.03;;;5.59;94.09
6425;BME280;12193;42.642;23.384;2023-02-04T11:23:33;93802.88;;;5.59;93.09
6425;BME280;12193;42.642;23.384;2023-02-04T11:26:08;93804.53;;;5.73;91.01
6425;BME280;12193;42.642;23.384;2023-02-04T11:28:44;93811.97;;;5.82;89.69
6425;BME280;12193;42.642;23.384;2023-02-04T11:31:24;93815.94;;;5.85;90.52
6425;BME280;12193;42.642;23.384;2023-02-04T11:34:26;93814.41;;;5.90;90.08
6425;BME280;12193;42.642;23.384;2023-02-04T11:37:04;93811.09;;;5.75;90.55
6425;BME280;12193;42.642;23.384;2023-02-04T11:39:38;93821.28;;;5.56;91.51
6425;BME280;12193;42.642;23.384;2023-02-04T11:42:28;93818.78;;;5.69;92.85
6425;BME280;12193;42.642;23.384;2023-02-04T11:45:00;93818.34;;;5.59;92.91
6425;BME280;12193;42.642;23.384;2023-02-04T11:47:34;93823.63;;;5.51;94.87
6425;BME280;12193;42.642;23.384;2023-02-04T11:50:20;93838.59;;;5.41;95.54
6425;BME280;12193;42.642;23.384;2023-02-04T11:52:50;93830.75;;;5.28;96.99
6425;BME280;12193;42.642;23.384;2023-02-04T11:55:21;93833.53;;;5.26;99.06
6425;BME280;12193;42.642;23.384;2023-02-04T11:57:52;93833.16;;;5.29;99.67
6425;BME280;12193;42.642;23.384;2023-02-04T12:00:28;93825.13;;;5.39;99.53
6425;BME280;12193;42.642;23.384;2023-02-04T12:02:59;93806.53;;;5.43;98.93
6425;BME280;12193;42.642;23.384;2023-02-04T12:05:44;93803.59;;;5.25;98.48
6425;BME280;12193;42.642;23.384;2023-02-04T12:08:25;93807.88;;;5.18;99.53
6425;BME280;12193;42.642;23.384;2023-02-04T12:11:06;93800.16;;;5.18;100.00
6425;BME280;12193;42.642;23.384;2023-02-04T12:13:46;93802.84;;;4.90;100.00
6425;BME280;12193;42.642;23.384;2023-02-04T12:16:16;93805.81;;;4.87;100.00
6425;BME280;12193;42.642;23.384;2023-02-04T12:18:45;93805.59;;;4.67;100.00
6425;BME280;12193;42.642;23.384;2023-02-04T12:21:17;93802.47;;;4.72;100.00
6425;BME280;12193;42.642;23.384;2023-02-04T12:23:46;93788.78;;;4.65;100.00
6425;BME280;12193;42.642;23.384;2023-02-04T12:26:16;93799.88;;;4.51;100.00
6425;BME280;12193;42.642;23.384;2023-02-04T12:28:45;93791.56;;;4.70;100.00
6425;BME280;12193;42.642;23.384;2023-02-04T12:31:14;93802.94;;;4.75;100.00
6425;BME280;12193;42.642;23.384;2023-02-04T12:33:44;93790.13;;;4.82;100.00
6425;BME280;12193;42.642;23.384;2023-02-04T12:36:13;93796.56;;;4.71;100.00
6425;BME280;12193;42.642;23.384;2023-02-04T12:38:45;93783.66;;;4.50;100.00
6425;BME280;12193;42.642;23.384;2023-02-04T12:41:14;93785.59;;;4.63;100.00
6425;BME280;12193;42.642;23.384;2023-02-04T12:43:45;93793.28;;;4.63;100.00
6425;BME280;12193;42.642;23.384;2023-02-04T12:46:15;93789.81;;;4.70;100.00
6425;BME280;12193;42.642;23.384;2023-02-04T12:48:45;93786.63;;;4.68;100.00
6425;BME280;12193;42.642;23.384;2023-02-04T12:51:14;93790.06;;;4.75;100.00
6425;BME280;12193;42.642;23.384;2023-02-04T12:53:46;93788.47;;;4.74;100.00
6425;BME280;12193;42.642;23.384;2023-02-04T12:56:16;93784.09;;;4.75;100.00
6425;BME280;12193;42.642;23.384;2023-02-04T12:58:48;93795.06;;;4.83;100.00
6425;BME280;12193;42.642;23.384;2023-02-04T13:01:18;93786.63;;;5.10;100.00
6425;BME280;12193;42.642;23.384;2023-02-04T13:03:47;93791.72;;;5.04;100.00
6425;BME280;12193;42.642;23.384;2023-02-04T13:06:21;93775.25;;;4.98;99.57
6425;BME280;12193;42.642;23.384;2023-02-04T13:08:53;93793.47;;;5.03;97.62
6425;BME280;12193;42.642;23.384;2023-02-04T13:11:22;93785.91;;;4.95;97.00
6425;BME280;12193;42.642;23.384;2023-02-04T13:13:52;93788.59;;;4.87;97.22
6425;BME280;12193;42.642;23.384;2023-02-04T13:16:21;93794.03;;;4.78;96.75
6425;BME280;12193;42.642;23.384;2023-02-04T13:18:51;93797.59;;;4.77;97.30
6425;BME280;12193;42.642;23.384;2023-02-04T13:21:20;93785.63;;;4.69;97.28
6425;BME280;12193;42.642;23.384;2023-02-04T13:23:49;93795.22;;;4.75;97.51
6425;BME280;12193;42.642;23.384;2023-02-04T13:26:21;93802.56;;;4.78;97.49
6425;BME280;12193;42.642;23.384;2023-02-04T13:28:51;93804.72;;;4.60;98.38
6425;BME280;12193;42.642;23.384;2023-02-04T13:31:20;93810.63;;;4.54;99.00
6425;BME280;12193;42.642;23.384;2023-02-04T13:33:49;93803.97;;;4.45;100.00
6425;BME280;12193;42.642;23.384;2023-02-04T13:36:18;93802.13;;;4.39;100.00
6425;BME280;12193;42.642;23.384;2023-02-04T13:38:48;93808.34;;;4.45;100.00
6425;BME280;12193;42.642;23.384;2023-02-04T13:41:17;93807.72;;;4.43;100.00
6425;BME280;12193;42.642;23.384;2023-02-04T13:43:49;93798.84;;;4.45;100.00
6425;BME280;12193;42.642;23.384;2023-02-04T13:46:20;93800.81;;;4.29;100.00
6425;BME280;12193;42.642;23.384;2023-02-04T13:48:49;93807.31;;;4.25;100.00
6425;BME280;12193;42.642;23.384;2023-02-04T13:51:18;93810.94;;;4.30;100.00
6425;BME280;12193;42.642;23.384;2023-02-04T13:53:48;93804.28;;;4.36;100.00
6425;BME280;12193;42.642;23.384;2023-02-04T13:56:17;93818.53;;;4.38;100.00
6425;BME280;12193;42.642;23.384;2023-02-04T13:58:49;93813.13;;;4.48;100.00
6425;BME280;12193;42.642;23.384;2023-02-04T14:01:19;93812.75;;;4.51;100.00
6425;BME280;12193;42.642;23.384;2023-02-04T14:03:48;93818.78;;;4.43;100.00
6425;BME280;12193;42.642;23.384;2023-02-04T14:06:17;93814.41;;;4.23;100.00
6425;BME280;12193;42.642;23.384;2023-02-04T14:08:47;93818.94;;;4.21;100.00
6425;BME280;12193;42.642;23.384;2023-02-04T14:11:16;93823.53;;;4.25;100.00
6425;BME280;12193;42.642;23.384;2023-02-04T14:13:45;93836.66;;;4.16;100.00
6425;BME280;12193;42.642;23.384;2023-02-04T14:16:17;93838.97;;;4.25;100.00
6425;BME280;12193;42.642;23.384;2023-02-04T14:18:47;93853.25;;;4.28;100.00
6425;BME280;12193;42.642;23.384;2023-02-04T14:21:16;93841.88;;;4.22;100.00
6425;BME280;12193;42.642;23.384;2023-02-04T14:23:45;93849.53;;;4.16;100.00
6425;BME280;12193;42.642;23.384;2023-02-04T14:26:14;93860.25;;;4.19;100.00
6425;BME280;12193;42.642;23.384;2023-02-04T14:28:44;93846.75;;;4.32;100.00
6425;BME280;12193;42.642;23.384;2023-02-04T14:31:13;93851.13;;;4.17;100.00
6425;BME280;12193;42.642;23.384;2023-02-04T14:33:45;93857.50;;;4.21;100.00
6425;BME280;12193;42.642;23.384;2023-02-04T14:36:15;93853.25;;;3.99;100.00
6425;BME280;12193;42.642;23.384;2023-02-04T14:38:44;93874.97;;;3.97;100.00
6425;BME280;12193;42.642;23.384;2023-02-04T14:41:13;93871.09;;;3.64;100.00
6425;BME280;12193;42.642;23.384;2023-02-04T14:43:45;93869.56;;;3.40;100.00
6425;BME280;12193;42.642;23.384;2023-02-04T14:46:14;93872.19;;;3.32;100.00
6425;BME280;12193;42.642;23.384;2023-02-04T14:48:46;93877.78;;;3.36;100.00
6425;BME280;12193;42.642;23.384;2023-02-04T14:51:17;93870.53;;;3.17;100.00
6425;BME280;12193;42.642;23.384;2023-02-04T14:53:46;93877.44;;;3.16;100.00
6425;BME280;12193;42.642;23.384;2023-02-04T14:56:15;93891.84;;;3.25;100.00
6425;BME280;12193;42.642;23.384;2023-02-04T14:58:44;93890.56;;;3.21;100.00
6425;BME280;12193;42.642;23.384;2023-02-04T15:01:14;93904.41;;;3.12;100.00
6425;BME280;12193;42.642;23.384;2023-02-04T15:03:47;93899.69;;;3.24;100.00
6425;BME280;12193;42.642;23.384;2023-02-04T15:06:16;93901.75;;;3.28;100.00
6425;BME280;12193;42.642;23.384;2023-02-04T15:08:46;93906.75;;;3.22;100.00
6425;BME280;12193;42.642;23.384;2023-02-04T15:11:15;93901.47;;;3.23;100.00
6425;BME280;12193;42.642;23.384;2023-02-04T15:13:44;93902.09;;;3.25;100.00
6425;BME280;12193;42.642;23.384;2023-02-04T15:16:14;93903.19;;;3.31;100.00
6425;BME280;12193;42.642;23.384;2023-02-04T15:18:43;93900.63;;;3.31;99.35
6425;BME280;12193;42.642;23.384;2023-02-04T15:21:15;93903.53;;;3.28;97.78
6425;BME280;12193;42.642;23.384;2023-02-04T15:23:45;93911.03;;;3.29;96.44
6425;BME280;12193;42.642;23.384;2023-02-04T15:26:14;93928.22;;;3.29;95.91
6425;BME280;12193;42.642;23.384;2023-02-04T15:28:43;93924.09;;;3.20;95.44
6425;BME280;12193;42.642;23.384;2023-02-04T15:31:13;93933.06;;;3.24;95.22
6425;BME280;12193;42.642;23.384;2023-02-04T15:33:42;93933.88;;;3.24;95.16
6425;BME280;12193;42.642;23.384;2023-02-04T15:36:11;93933.59;;;3.19;95.00
6425;BME280;12193;42.642;23.384;2023-02-04T15:38:43;93943.34;;;3.24;94.94
6425;BME280;12193;42.642;23.384;2023-02-04T15:41:12;93944.22;;;3.08;96.90
6425;BME280;12193;42.642;23.384;2023-02-04T15:43:42;93935.00;;;3.00;98.00
6425;BME280;12193;42.642;23.384;2023-02-04T15:46:13;93944.28;;;3.01;98.46
6425;BME280;12193;42.642;23.384;2023-02-04T15:48:43;93942.63;;;2.77;97.85
6425;BME280;12193;42.642;23.384;2023-02-04T15:51:12;93944.50;;;2.61;97.58
6425;BME280;12193;42.642;23.384;2023-02-04T15:53:44;93952.66;;;2.64;97.22
6425;BME280;12193;42.642;23.384;2023-02-04T15:56:13;93966.63;;;2.62;97.09
6425;BME280;12193;42.642;23.384;2023-02-04T15:58:42;93962.31;;;2.54;96.00
6425;BME280;12193;42.642;23.384;2023-02-04T16:01:11;93969.81;;;2.64;95.22
6425;BME280;12193;42.642;23.384;2023-02-04T16:03:42;93963.44;;;2.52;94.78
6425;BME280;12193;42.642;23.384;2023-02-04T16:06:12;93950.28;;;2.55;94.96
6425;BME280;12193;42.642;23.384;2023-02-04T16:08:44;93949.66;;;2.45;94.49
6425;BME280;12193;42.642;23.384;2023-02-04T16:11:13;93966.84;;;2.36;94.70
6425;BME280;12193;42.642;23.384;2023-02-04T16:13:43;93958.38;;;2.36;94.28
6425;BME280;12193;42.642;23.384;2023-02-04T16:16:12;93958.56;;;2.26;94.44
6425;BME280;12193;42.642;23.384;2023-02-04T16:18:41;93971.69;;;2.23;93.56
6425;BME280;12193;42.642;23.384;2023-02-04T16:21:10;93983.88;;;2.29;93.83
6425;BME280;12193;42.642;23.384;2023-02-04T16:23:39;93981.75;;;2.25;92.13
6425;BME280;12193;42.642;23.384;2023-02-04T16:26:12;93985.94;;;2.26;91.80